Time;durP1;ratioP1;P1;durP2;ratioP2;P2;SDS_P1;SDS_P2;PMS_P1;PMS_P2;Temp;Humidity;BMP_temperature;BMP_pressure;BME280_temperature;BME280_humidity;BME280_pressure;Samples;Min_cycle;Max_cycle;Signal;HPM_P1;HPM_P2
2023/10/12 00:00:36;;;;;;;26.90;12.27;;;15.20;99.90;;;;;;5092013;28;20043;-71
2023/10/12 00:03:05;;;;;;;19.40;11.27;;;15.10;99.90;;;;;;5089860;28;20078;-71
2023/10/12 00:05:34;;;;;;;20.85;11.90;;;15.10;99.90;;;;;;5088829;28;20068;-70
2023/10/12 00:08:10;;;;;;;20.35;11.55;;;15.20;99.90;;;;;;5093522;28;20036;-73
2023/10/12 00:10:55;;;;;;;21.08;11.07;;;15.40;99.90;;;;;;5090538;28;20040;-71
2023/10/12 00:13:28;;;;;;;25.33;11.25;;;15.30;99.90;;;;;;5089131;28;20425;-70
2023/10/12 00:15:56;;;;;;;21.65;11.25;;;15.40;99.90;;;;;;5088896;28;20155;-71
2023/10/12 00:18:23;;;;;;;27.02;11.80;;;15.50;99.90;;;;;;5092188;28;20035;-74
2023/10/12 00:20:54;;;;;;;21.95;11.30;;;15.50;99.90;;;;;;5093136;28;20039;-71
2023/10/12 00:23:21;;;;;;;18.00;11.10;;;15.40;99.90;;;;;;5088824;28;20064;-70
2023/10/12 00:25:58;;;;;;;22.40;11.23;;;15.30;99.90;;;;;;5085247;28;20036;-76
2023/10/12 00:28:38;;;;;;;19.42;10.60;;;15.40;99.90;;;;;;5084619;28;20505;-70
2023/10/12 00:31:12;;;;;;;22.17;11.55;;;15.40;99.90;;;;;;5088155;28;20040;-69
2023/10/12 00:33:40;;;;;;;22.50;12.00;;;15.30;99.90;;;;;;5089286;28;20082;-71
2023/10/12 00:36:19;;;;;;;23.80;11.50;;;15.30;99.90;;;;;;5086632;28;20040;-73
2023/10/12 00:38:48;;;;;;;24.77;11.45;;;15.30;99.90;;;;;;5072755;28;20040;-73
2023/10/12 00:41:17;;;;;;;23.95;12.02;;;15.30;99.90;;;;;;5090137;28;20105;-71
2023/10/12 00:46:58;;;;;;;23.55;12.77;;;15.20;99.90;;;;;;5086171;28;20550;-71
2023/10/12 00:49:29;;;;;;;22.67;12.00;;;15.10;99.90;;;;;;5088878;28;20067;-69
2023/10/12 00:52:12;;;;;;;26.83;12.82;;;15.10;99.90;;;;;;5089982;28;20040;-71
2023/10/12 00:54:42;;;;;;;23.17;13.43;;;15.10;99.90;;;;;;5091227;28;20471;-71
2023/10/12 00:57:27;;;;;;;21.73;13.77;;;14.20;99.90;;;;;;5081201;28;20105;-73
2023/10/12 00:59:55;;;;;;;24.10;12.77;;;13.70;99.90;;;;;;5068282;28;20036;-71
2023/10/12 01:02:24;;;;;;;20.33;12.52;;;13.60;99.90;;;;;;5090100;28;20039;-71
2023/10/12 01:04:53;;;;;;;20.45;12.13;;;14.00;99.90;;;;;;5086969;28;20050;-70
2023/10/12 01:07:25;;;;;;;23.65;12.13;;;14.50;99.90;;;;;;5088256;28;20036;-70
2023/10/12 01:10:03;;;;;;;20.67;12.07;;;14.60;99.90;;;;;;5088471;28;20040;-71
2023/10/12 01:12:31;;;;;;;18.02;10.90;;;14.70;99.90;;;;;;5092611;28;20072;-76
2023/10/12 01:15:04;;;;;;;18.98;10.95;;;14.70;99.90;;;;;;5092301;28;20119;-71
2023/10/12 01:17:34;;;;;;;17.40;9.90;;;14.70;99.90;;;;;;5073790;28;20396;-83
2023/10/12 01:20:16;;;;;;;16.33;10.05;;;14.40;99.90;;;;;;5073565;28;20036;-75
2023/10/12 01:22:47;;;;;;;15.55;9.13;;;14.50;99.90;;;;;;5073213;28;20059;-70
2023/10/12 01:25:21;;;;;;;19.38;10.25;;;14.50;99.90;;;;;;5091216;28;20124;-71
2023/10/12 01:27:50;;;;;;;18.63;11.00;;;14.30;99.90;;;;;;5079908;28;20036;-76
2023/10/12 01:30:23;;;;;;;21.45;12.05;;;14.60;99.90;;;;;;5090072;28;20043;-70
2023/10/12 01:32:57;;;;;;;18.25;9.75;;;14.80;99.90;;;;;;5085823;28;20039;-71
2023/10/12 01:35:32;;;;;;;16.55;10.00;;;14.70;99.90;;;;;;5086686;28;20036;-77
2023/10/12 01:38:00;;;;;;;19.95;11.15;;;14.70;99.90;;;;;;5090156;28;20032;-73
2023/10/12 01:43:12;;;;;;;16.00;9.20;;;14.60;99.90;;;;;;5090560;28;20060;-77
2023/10/12 01:45:43;;;;;;;17.40;9.88;;;14.50;99.90;;;;;;5091961;28;20043;-70
2023/10/12 01:48:12;;;;;;;16.60;9.63;;;14.40;99.90;;;;;;5074567;28;20444;-69
2023/10/12 01:50:40;;;;;;;15.68;9.40;;;14.50;99.90;;;;;;5093172;28;20067;-71
2023/10/12 01:55:51;;;;;;;16.23;9.85;;;13.80;99.90;;;;;;5092195;28;20042;-74
2023/10/12 01:58:20;;;;;;;16.50;9.73;;;13.70;99.90;;;;;;5080499;28;20047;-76
2023/10/12 02:00:53;;;;;;;17.40;9.88;;;13.60;99.90;;;;;;5087378;28;20037;-72
2023/10/12 02:05:59;;;;;;;15.02;9.43;;;13.50;99.90;;;;;;5087653;28;20068;-71
2023/10/12 02:08:39;;;;;;;17.02;9.52;;;13.60;99.90;;;;;;5085128;28;20119;-74
2023/10/12 02:11:11;;;;;;;14.00;9.88;;;13.90;99.90;;;;;;5070472;28;20052;-74
2023/10/12 02:14:01;;;;;;;19.58;9.68;;;14.20;99.90;;;;;;5089443;28;20028;-70
2023/10/12 02:16:53;;;;;;;17.05;9.00;;;14.40;99.90;;;;;;5090515;28;20448;-69
2023/10/12 02:19:31;;;;;;;16.80;10.63;;;14.40;99.90;;;;;;5090944;28;20126;-68
2023/10/12 02:22:04;;;;;;;14.02;10.30;;;14.30;99.90;;;;;;5087673;28;20063;-71
2023/10/12 02:24:35;;;;;;;21.40;10.52;;;14.30;99.90;;;;;;5090166;28;20044;-69
2023/10/12 02:27:04;;;;;;;17.17;9.93;;;14.30;99.90;;;;;;5087309;28;20483;-70
2023/10/12 02:29:35;;;;;;;18.33;11.43;;;14.20;99.90;;;;;;5081398;28;20441;-76
2023/10/12 02:32:15;;;;;;;18.52;11.23;;;14.20;99.90;;;;;;5086237;28;20032;-71
2023/10/12 02:34:43;;;;;;;18.65;11.68;;;14.30;99.90;;;;;;5088228;28;20081;-75
2023/10/12 02:37:28;;;;;;;18.92;10.85;;;14.20;99.90;;;;;;5085033;28;20060;-72
2023/10/12 02:39:56;;;;;;;20.80;11.48;;;14.00;99.90;;;;;;5071974;28;20046;-72
2023/10/12 02:42:38;;;;;;;22.02;11.57;;;14.10;99.90;;;;;;5085680;28;20055;-74
2023/10/12 02:47:45;;;;;;;20.02;10.52;;;13.90;99.90;;;;;;5089890;28;20032;-71
2023/10/12 02:52:43;;;;;;;18.65;10.75;;;14.10;99.90;;;;;;5090697;28;20090;-79
2023/10/12 02:58:07;;;;;;;18.50;10.68;;;14.30;99.90;;;;;;5060511;28;19931;-80
2023/10/12 03:00:50;;;;;;;19.45;10.75;;;14.30;99.90;;;;;;5087164;28;20048;-74
2023/10/12 03:03:24;;;;;;;21.02;9.55;;;14.30;99.90;;;;;;5068756;28;20139;-72
2023/10/12 03:05:53;;;;;;;17.30;10.00;;;14.30;99.90;;;;;;5088222;28;20050;-70
2023/10/12 03:09:01;;;;;;;14.90;9.48;;;14.10;99.90;;;;;;5069012;28;20032;-73
2023/10/12 03:11:29;;;;;;;19.08;8.85;;;14.10;99.90;;;;;;5090077;28;20043;-70
2023/10/12 03:14:15;;;;;;;18.23;10.05;;;14.10;99.90;;;;;;5074612;28;20024;-70
2023/10/12 03:16:43;;;;;;;16.38;9.70;;;14.10;99.90;;;;;;5093868;28;20125;-68
2023/10/12 03:21:48;;;;;;;18.58;9.98;;;14.20;99.90;;;;;;5094066;28;20418;-71
2023/10/12 03:24:29;;;;;;;15.40;9.48;;;14.20;99.90;;;;;;5093436;28;20086;-70
2023/10/12 03:27:17;;;;;;;18.23;9.18;;;14.20;99.90;;;;;;5089216;28;20039;-73
2023/10/12 03:29:45;;;;;;;15.80;9.73;;;14.20;99.90;;;;;;5087357;28;20390;-79
2023/10/12 03:32:19;;;;;;;14.90;9.43;;;14.10;99.90;;;;;;5090859;28;20058;-70
2023/10/12 03:37:18;;;;;;;15.43;10.27;;;14.00;99.90;;;;;;5091777;28;20717;-69
2023/10/12 03:47:47;;;;;;;15.32;9.48;;;13.90;99.90;;;;;;5091921;28;20039;-75
2023/10/12 03:50:18;;;;;;;19.35;9.90;;;13.90;99.90;;;;;;5093670;28;20109;-69
2023/10/12 03:52:52;;;;;;;15.48;9.65;;;14.00;99.90;;;;;;5094326;28;20372;-70
2023/10/12 03:55:42;;;;;;;15.77;8.80;;;14.00;99.90;;;;;;5093175;28;20035;-70
2023/10/12 03:58:14;;;;;;;14.50;8.48;;;13.90;99.90;;;;;;5086650;28;20036;-76
2023/10/12 04:00:48;;;;;;;15.27;9.65;;;14.10;99.90;;;;;;5095048;28;20040;-75
2023/10/12 04:03:18;;;;;;;16.42;9.73;;;14.00;99.90;;;;;;5096742;28;20040;-71
2023/10/12 04:05:50;;;;;;;15.82;9.32;;;14.10;99.90;;;;;;5094679;28;20465;-75
2023/10/12 04:08:38;;;;;;;16.73;9.20;;;14.00;99.90;;;;;;5091565;28;20036;-75
2023/10/12 04:21:23;;;;;;;18.30;9.88;;;13.90;99.90;;;;;;5092784;28;20546;-74
2023/10/12 04:29:09;;;;;;;22.38;10.80;;;13.80;99.90;;;;;;5081519;28;20402;-71
2023/10/12 04:34:15;;;;;;;18.00;10.45;;;13.90;99.90;;;;;;5088793;28;20075;-77
2023/10/12 04:39:37;;;;;;;15.25;9.60;;;14.00;99.90;;;;;;5076236;28;19935;-77
2023/10/12 04:42:05;;;;;;;16.23;10.02;;;14.00;99.90;;;;;;5082834;28;20048;-70
2023/10/12 04:47:09;;;;;;;16.48;9.25;;;13.90;99.90;;;;;;5087839;28;20039;-72
2023/10/12 04:55:06;;;;;;;17.83;10.38;;;13.80;99.90;;;;;;5085718;28;20044;-77
2023/10/12 04:57:34;;;;;;;20.52;11.23;;;13.70;99.90;;;;;;5082389;28;20123;-70
2023/10/12 05:02:54;;;;;;;20.02;11.95;;;13.80;99.90;;;;;;5087264;28;20067;-76
2023/10/12 05:07:57;;;;;;;114.10;64.78;;;13.80;99.90;;;;;;5067353;28;20036;-69
2023/10/12 05:10:27;;;;;;;91.60;53.42;;;13.90;99.90;;;;;;5080807;28;21443;-76
2023/10/12 05:13:03;;;;;;;44.25;26.25;;;14.00;99.90;;;;;;5088021;28;20422;-70
2023/10/12 05:15:41;;;;;;;25.88;15.38;;;14.00;99.90;;;;;;5067615;28;20044;-73
2023/10/12 05:18:13;;;;;;;18.40;11.93;;;14.10;99.90;;;;;;5091264;28;20042;-71
2023/10/12 05:20:42;;;;;;;20.58;11.88;;;14.20;99.90;;;;;;5089715;28;20044;-86
2023/10/12 05:23:11;;;;;;;17.40;10.63;;;14.30;99.90;;;;;;5088761;28;20039;-72
2023/10/12 05:25:50;;;;;;;17.40;9.90;;;14.20;99.90;;;;;;5090326;28;20048;-77
2023/10/12 05:28:27;;;;;;;21.17;9.77;;;14.10;99.90;;;;;;5085309;28;20543;-71
2023/10/12 05:30:59;;;;;;;21.83;10.10;;;14.20;99.90;;;;;;5091342;28;20049;-72
2023/10/12 05:36:00;;;;;;;17.85;10.35;;;14.20;99.90;;;;;;5087448;28;20043;-71
2023/10/12 05:38:36;;;;;;;18.58;10.65;;;14.20;99.90;;;;;;5065375;28;20037;-74
2023/10/12 05:41:04;;;;;;;19.35;11.45;;;14.30;99.90;;;;;;5087681;28;20051;-70
2023/10/12 05:43:36;;;;;;;20.33;10.98;;;14.30;99.90;;;;;;5089419;28;20058;-74
2023/10/12 05:46:09;;;;;;;16.30;9.45;;;14.40;99.90;;;;;;5088794;28;20051;-72
2023/10/12 05:48:46;;;;;;;19.48;10.15;;;14.50;99.90;;;;;;5089491;28;20068;-73
2023/10/12 05:51:18;;;;;;;53.70;29.90;;;14.50;99.90;;;;;;5086288;28;20047;-80
2023/10/12 05:53:48;;;;;;;44.42;24.88;;;14.50;99.90;;;;;;5087508;28;20081;-76
2023/10/12 05:56:18;;;;;;;29.13;17.92;;;14.50;99.90;;;;;;5086340;28;20500;-76
2023/10/12 05:58:46;;;;;;;19.67;12.18;;;14.60;99.90;;;;;;5087345;28;20041;-73
2023/10/12 06:01:31;;;;;;;20.10;10.95;;;14.60;99.90;;;;;;5089575;28;20078;-73
2023/10/12 06:04:08;;;;;;;21.98;11.55;;;14.70;99.90;;;;;;5087142;28;20040;-74
2023/10/12 06:06:41;;;;;;;19.88;11.52;;;14.70;99.90;;;;;;5089359;28;20416;-73
2023/10/12 06:09:13;;;;;;;16.30;10.65;;;14.80;99.90;;;;;;5089821;28;20043;-73
2023/10/12 06:11:46;;;;;;;22.98;11.23;;;14.90;99.90;;;;;;5089804;28;20044;-75
2023/10/12 06:14:15;;;;;;;17.08;10.48;;;14.90;99.90;;;;;;5070510;28;20036;-73
2023/10/12 06:16:44;;;;;;;17.67;10.75;;;15.10;99.90;;;;;;5052901;28;20040;-74
2023/10/12 06:19:57;;;;;;;18.75;11.18;;;15.20;99.90;;;;;;5090152;28;20111;-75
2023/10/12 06:21:59;;;;;;;18.90;11.07;;;15.20;99.90;;;;;;5070133;28;20059;-72
2023/10/12 06:24:33;;;;;;;21.70;10.13;;;15.10;99.90;;;;;;5086339;28;20115;-74
2023/10/12 06:27:25;;;;;;;23.13;11.43;;;15.20;99.90;;;;;;5090372;28;20489;-73
2023/10/12 06:29:54;;;;;;;22.65;10.95;;;15.30;99.90;;;;;;5090280;28;20132;-74
2023/10/12 06:32:31;;;;;;;22.20;10.85;;;15.30;99.90;;;;;;5089585;28;20044;-73
2023/10/12 06:37:49;;;;;;;25.75;11.60;;;15.40;99.90;;;;;;5087006;28;20048;-73
2023/10/12 06:45:49;;;;;;;22.13;12.02;;;15.40;99.90;;;;;;5087781;28;20419;-74
2023/10/12 06:51:12;;;;;;;18.52;12.65;;;15.30;99.90;;;;;;5086935;28;20456;-74
2023/10/12 06:53:41;;;;;;;20.63;12.27;;;15.20;99.90;;;;;;5087205;28;20115;-76
2023/10/12 06:56:49;;;;;;;23.52;12.52;;;15.20;99.90;;;;;;5088505;28;20505;-74
2023/10/12 06:59:20;;;;;;;20.45;11.80;;;15.40;99.90;;;;;;5080342;28;20075;-75
2023/10/12 07:07:11;;;;;;;23.17;13.35;;;15.80;99.90;;;;;;5086607;28;20467;-71
2023/10/12 07:12:28;;;;;;;20.23;12.65;;;15.70;99.90;;;;;;5041053;28;20105;-73
2023/10/12 07:14:56;;;;;;;28.52;13.55;;;15.70;99.90;;;;;;5089806;28;20032;-74
2023/10/12 07:17:32;;;;;;;26.75;14.02;;;15.90;99.90;;;;;;5089701;28;20403;-73
2023/10/12 07:20:00;;;;;;;29.80;13.55;;;16.00;99.90;;;;;;5085688;28;20379;-72
2023/10/12 07:22:27;;;;;;;36.08;13.60;;;16.00;99.90;;;;;;5084992;28;20055;-72
2023/10/12 07:24:56;;;;;;;28.02;12.43;;;16.20;99.90;;;;;;5071706;28;20060;-74
2023/10/12 07:27:25;;;;;;;21.93;13.10;;;16.20;99.90;;;;;;5089168;28;20040;-74
2023/10/12 07:30:22;;;;;;;25.40;12.55;;;16.20;99.90;;;;;;5085148;28;20055;-73
2023/10/12 07:32:55;;;;;;;22.13;12.73;;;16.40;99.90;;;;;;5083720;28;20394;-71
2023/10/12 07:35:34;;;;;;;19.88;12.55;;;16.60;99.90;;;;;;5088386;28;20092;-72
2023/10/12 07:38:14;;;;;;;24.38;13.50;;;16.60;99.90;;;;;;5056457;28;20036;-73
2023/10/12 07:43:23;;;;;;;24.58;12.40;;;17.00;99.90;;;;;;5088352;28;20036;-73
2023/10/12 07:45:51;;;;;;;24.65;12.00;;;17.30;99.90;;;;;;5088944;28;20043;-73
2023/10/12 07:48:31;;;;;;;22.73;12.13;;;17.40;99.90;;;;;;5084409;28;20059;-73
2023/10/12 07:54:25;;;;;;;17.27;11.20;;;17.40;99.90;;;;;;5023646;28;19971;-73
2023/10/12 07:56:53;;;;;;;20.02;11.23;;;17.60;99.90;;;;;;5029638;28;20056;-73
2023/10/12 07:59:22;;;;;;;21.05;11.55;;;17.80;99.90;;;;;;5070458;28;20052;-73
2023/10/12 08:01:50;;;;;;;17.98;10.35;;;17.90;99.90;;;;;;5085323;28;20051;-73
2023/10/12 08:04:39;;;;;;;17.33;9.75;;;18.00;99.90;;;;;;5093839;28;20457;-75
2023/10/12 08:07:06;;;;;;;16.98;12.02;;;18.10;99.90;;;;;;5086236;28;20128;-75
2023/10/12 08:09:47;;;;;;;17.95;10.55;;;18.30;99.90;;;;;;5083112;28;20068;-72
2023/10/12 08:12:23;;;;;;;14.05;9.27;;;18.40;99.90;;;;;;5089260;28;20578;-73
2023/10/12 08:15:09;;;;;;;14.95;9.60;;;18.40;99.90;;;;;;5088106;28;20115;-71
2023/10/12 08:17:39;;;;;;;17.10;8.80;;;18.30;99.90;;;;;;5087645;28;20048;-73
2023/10/12 08:20:45;;;;;;;16.00;8.05;;;18.30;99.90;;;;;;5091817;28;20441;-71
2023/10/12 08:23:04;;;;;;;17.67;8.52;;;18.40;99.90;;;;;;5088800;28;20051;-72
2023/10/12 08:25:38;;;;;;;15.35;9.43;;;18.50;99.90;;;;;;5084470;28;20115;-76
2023/10/12 08:28:06;;;;;;;15.10;9.32;;;18.60;99.90;;;;;;5088400;28;20051;-71
2023/10/12 08:30:57;;;;;;;15.45;9.00;;;18.70;99.90;;;;;;5085060;28;20422;-76
2023/10/12 08:33:48;;;;;;;15.85;10.65;;;18.80;99.90;;;;;;5060550;28;20048;-72
2023/10/12 08:39:08;;;;;;;19.05;10.60;;;19.40;99.90;;;;;;5081786;28;20036;-74
2023/10/12 08:42:29;;;;;;;13.65;8.60;;;19.50;99.90;;;;;;5063205;28;20071;-71
2023/10/12 08:44:45;;;;;;;12.55;7.72;;;19.50;99.90;;;;;;5062181;28;20036;-72
2023/10/12 08:47:27;;;;;;;17.40;9.27;;;19.80;99.90;;;;;;5065998;28;20186;-72
2023/10/12 08:50:01;;;;;;;17.23;8.68;;;19.80;99.90;;;;;;5075469;28;20039;-74
2023/10/12 08:52:32;;;;;;;17.08;8.52;;;19.70;99.90;;;;;;5067513;28;20047;-70
2023/10/12 08:55:24;;;;;;;16.38;8.93;;;19.70;99.90;;;;;;5073825;28;20047;-71
2023/10/12 08:58:16;;;;;;;15.15;8.60;;;19.90;99.90;;;;;;5068603;28;20094;-78
2023/10/12 09:00:51;;;;;;;14.52;8.95;;;20.10;99.90;;;;;;5061023;28;20392;-71
2023/10/12 09:05:51;;;;;;;15.27;9.25;;;20.30;99.90;;;;;;5068453;28;20460;-75
2023/10/12 09:10:51;;;;;;;24.27;14.25;;;20.50;99.00;;;;;;5063728;28;20847;-74
2023/10/12 09:13:19;;;;;;;26.45;15.73;;;20.40;98.80;;;;;;5068177;28;20112;-81
2023/10/12 09:15:50;;;;;;;19.60;13.77;;;20.70;98.50;;;;;;5064750;28;20538;-77
2023/10/12 09:18:18;;;;;;;14.43;10.68;;;21.00;98.10;;;;;;5067996;28;20049;-73
2023/10/12 09:21:18;;;;;;;16.88;9.52;;;20.80;97.80;;;;;;5062751;28;20041;-76
2023/10/12 09:31:48;;;;;;;15.57;9.35;;;21.10;97.30;;;;;;5066262;28;20044;-81
2023/10/12 09:36:53;;;;;;;14.05;8.65;;;21.80;95.80;;;;;;5073642;28;20287;-74
2023/10/12 09:39:28;;;;;;;26.85;9.48;;;21.90;95.70;;;;;;5067786;28;20033;-83
2023/10/12 09:42:00;;;;;;;15.00;8.77;;;22.10;95.50;;;;;;5081861;28;20054;-83
2023/10/12 09:44:39;;;;;;;20.55;11.05;;;22.20;94.50;;;;;;5090780;28;20036;-79
2023/10/12 09:47:15;;;;;;;21.08;12.27;;;22.00;94.60;;;;;;5072389;28;20054;-82
2023/10/12 09:49:54;;;;;;;17.08;9.70;;;22.20;94.70;;;;;;5089296;28;20036;-80
2023/10/12 09:52:41;;;;;;;12.27;8.93;;;22.60;94.20;;;;;;5073664;28;20032;-78
2023/10/12 09:55:24;;;;;;;15.10;8.98;;;22.50;93.60;;;;;;5063182;28;20057;-80
2023/10/12 09:57:56;;;;;;;14.85;7.93;;;22.30;94.30;;;;;;5088095;28;20044;-80
2023/10/12 10:03:10;;;;;;;17.25;8.90;;;22.10;94.70;;;;;;5089184;28;20254;-83
2023/10/12 10:06:03;;;;;;;14.25;7.97;;;22.40;94.70;;;;;;5073085;28;20055;-78
2023/10/12 10:08:30;;;;;;;15.07;8.20;;;22.20;94.60;;;;;;5083065;28;20067;-75
2023/10/12 10:10:58;;;;;;;17.25;8.48;;;22.40;95.00;;;;;;5082491;28;20555;-77
2023/10/12 10:13:46;;;;;;;14.07;8.50;;;22.70;94.50;;;;;;5087652;28;20044;-79
2023/10/12 10:16:58;;;;;;;16.38;10.15;;;23.00;94.00;;;;;;5082038;28;20101;-78
2023/10/12 10:19:28;;;;;;;18.60;11.27;;;23.30;93.30;;;;;;5087210;28;20043;-78
2023/10/12 10:22:06;;;;;;;14.90;8.45;;;23.10;93.70;;;;;;5084918;28;20486;-77
2023/10/12 10:24:55;;;;;;;16.52;8.40;;;22.60;93.60;;;;;;5083590;28;20387;-76
2023/10/12 10:27:36;;;;;;;15.00;8.82;;;22.80;93.20;;;;;;5084647;28;20093;-78
2023/10/12 10:30:26;;;;;;;13.48;7.60;;;22.90;93.60;;;;;;5084670;28;20090;-81
2023/10/12 10:33:13;;;;;;;15.70;8.23;;;22.80;93.40;;;;;;5058637;28;20507;-76
2023/10/12 10:35:59;;;;;;;13.85;7.85;;;23.20;93.20;;;;;;5083831;28;20483;-77
2023/10/12 10:38:32;;;;;;;12.27;7.65;;;23.70;92.70;;;;;;5088056;28;20035;-83
2023/10/12 10:41:07;;;;;;;11.85;7.75;;;23.80;92.20;;;;;;5088973;28;20152;-77
2023/10/12 10:43:37;;;;;;;16.17;8.63;;;23.70;91.20;;;;;;5086574;28;20040;-79
2023/10/12 10:46:13;;;;;;;17.63;8.52;;;23.30;91.20;;;;;;5086264;28;20066;-79
2023/10/12 10:48:41;;;;;;;14.50;8.25;;;23.40;91.60;;;;;;5087505;28;20050;-78
2023/10/12 10:51:11;;;;;;;18.10;8.70;;;23.80;91.10;;;;;;5067930;28;20051;-77
2023/10/12 10:53:38;;;;;;;11.25;7.88;;;23.60;91.00;;;;;;5088135;28;20410;-77
2023/10/12 10:56:13;;;;;;;14.63;7.85;;;23.80;90.80;;;;;;5085164;28;20047;-80
2023/10/12 10:58:46;;;;;;;16.73;8.50;;;24.10;90.90;;;;;;5087273;28;20453;-79
2023/10/12 11:01:14;;;;;;;20.00;9.45;;;24.10;89.90;;;;;;5074827;28;20088;-82
2023/10/12 11:03:46;;;;;;;14.10;8.07;;;24.00;89.60;;;;;;5092598;28;20494;-79
2023/10/12 11:06:21;;;;;;;12.35;7.88;;;24.20;88.80;;;;;;5087044;28;20036;-86
2023/10/12 11:09:14;;;;;;;14.05;8.40;;;24.30;89.80;;;;;;5090614;28;20044;-85
2023/10/12 11:11:53;;;;;;;11.80;7.90;;;24.70;88.50;;;;;;5068254;28;20499;-80
2023/10/12 11:14:31;;;;;;;14.15;9.07;;;25.20;85.40;;;;;;5087948;28;20048;-78
2023/10/12 11:17:04;;;;;;;17.02;8.98;;;25.00;83.50;;;;;;5088737;28;20034;-80
2023/10/12 11:19:33;;;;;;;16.35;8.82;;;25.00;82.20;;;;;;5069306;28;20041;-80
2023/10/12 11:22:00;;;;;;;13.45;8.02;;;24.50;82.60;;;;;;5071988;28;20137;-79
2023/10/12 11:24:28;;;;;;;14.45;8.15;;;24.50;83.10;;;;;;5085601;28;20047;-76
2023/10/12 11:26:57;;;;;;;15.73;8.15;;;26.20;80.80;;;;;;5088711;28;20040;-78
2023/10/12 11:29:25;;;;;;;14.77;7.73;;;29.10;73.90;;;;;;5089374;28;20040;-75
2023/10/12 11:32:08;;;;;;;11.52;7.85;;;30.00;69.30;;;;;;5073944;28;20276;-76
2023/10/12 11:34:53;;;;;;;11.55;7.43;;;29.60;67.40;;;;;;5088579;28;20044;-77
2023/10/12 11:37:23;;;;;;;14.43;7.93;;;31.20;62.70;;;;;;5090619;28;20040;-78
2023/10/12 11:39:52;;;;;;;12.13;7.57;;;31.90;60.10;;;;;;5089331;28;20040;-77
2023/10/12 11:42:20;;;;;;;16.73;7.95;;;31.00;59.90;;;;;;5082833;28;20048;-73
2023/10/12 11:44:51;;;;;;;12.75;7.38;;;29.40;63.30;;;;;;5065523;28;20037;-76
2023/10/12 11:47:24;;;;;;;11.90;7.28;;;27.60;64.70;;;;;;5075916;28;20032;-79
2023/10/12 11:49:57;;;;;;;12.02;6.93;;;27.00;67.80;;;;;;5083204;28;20045;-75
2023/10/12 11:52:37;;;;;;;14.25;7.65;;;26.30;67.80;;;;;;5086053;28;20043;-74
2023/10/12 11:55:06;;;;;;;13.00;8.20;;;26.40;68.80;;;;;;5076157;28;20039;-77
2023/10/12 11:57:40;;;;;;;;;;;26.40;66.60;;;;;;5068366;28;21229;-79
2023/10/12 12:02:59;;;;;;;11.27;7.20;;;26.60;65.60;;;;;;5050670;28;20369;-79
2023/10/12 12:05:29;;;;;;;14.93;8.32;;;26.50;67.00;;;;;;5075822;28;20071;-81
2023/10/12 12:08:05;;;;;;;16.67;7.63;;;26.50;66.70;;;;;;5068675;28;20036;-78
2023/10/12 12:10:46;;;;;;;13.30;7.57;;;26.90;68.00;;;;;;5073535;28;20672;-80
2023/10/12 12:13:15;;;;;;;13.73;7.30;;;27.40;64.80;;;;;;5090077;28;20406;-79
2023/10/12 12:15:43;;;;;;;12.45;7.32;;;27.00;66.30;;;;;;5090026;28;20040;-77
2023/10/12 12:18:17;;;;;;;12.40;8.23;;;26.80;65.20;;;;;;5092702;28;20039;-76
2023/10/12 12:20:58;;;;;;;12.57;7.80;;;26.50;68.30;;;;;;5091792;28;20036;-77
2023/10/12 12:23:32;;;;;;;12.27;7.35;;;27.00;67.70;;;;;;5080209;28;20458;-76
2023/10/12 12:26:07;;;;;;;14.52;7.88;;;27.20;64.40;;;;;;5094908;28;20032;-77
2023/10/12 12:28:43;;;;;;;11.00;7.25;;;27.20;65.50;;;;;;5091394;28;20369;-80
2023/10/12 12:31:14;;;;;;;11.10;7.28;;;27.10;64.90;;;;;;5077115;28;20064;-75
2023/10/12 12:33:44;;;;;;;13.60;7.53;;;26.80;64.90;;;;;;5091683;28;20202;-77
2023/10/12 12:36:21;;;;;;;9.57;6.85;;;27.20;64.20;;;;;;5091634;28;20513;-77
2023/10/12 12:38:57;;;;;;;19.02;11.10;;;27.30;64.40;;;;;;5091694;28;20822;-77
2023/10/12 12:41:24;;;;;;;15.38;12.15;;;27.60;62.20;;;;;;5064599;28;20385;-77
2023/10/12 12:43:53;;;;;;;15.48;8.43;;;27.70;63.20;;;;;;5086989;28;20078;-79
2023/10/12 12:46:20;;;;;;;11.90;7.88;;;27.90;62.40;;;;;;5074107;28;20043;-79
2023/10/12 12:48:52;;;;;;;13.73;8.13;;;27.80;62.20;;;;;;5091787;28;20036;-76
2023/10/12 12:51:20;;;;;;;11.73;7.65;;;27.90;61.60;;;;;;5089862;28;20067;-77
2023/10/12 12:53:50;;;;;;;12.02;6.82;;;27.90;61.60;;;;;;5091686;28;20044;-76
2023/10/12 12:56:19;;;;;;;10.65;7.22;;;28.10;61.30;;;;;;5084099;28;20111;-76
2023/10/12 12:58:51;;;;;;;14.15;7.38;;;27.90;60.40;;;;;;5091174;28;20047;-77
2023/10/12 13:01:23;;;;;;;13.88;7.25;;;28.00;60.20;;;;;;5083617;28;20032;-77
2023/10/12 13:03:57;;;;;;;12.90;7.18;;;28.40;59.70;;;;;;5065371;28;20055;-78
2023/10/12 13:06:25;;;;;;;12.05;7.60;;;27.90;59.60;;;;;;5092114;28;20032;-77
2023/10/12 13:08:52;;;;;;;15.52;6.90;;;28.00;58.90;;;;;;5091328;28;20459;-77
2023/10/12 13:11:21;;;;;;;14.70;7.60;;;27.90;57.90;;;;;;5091754;28;20039;-77
2023/10/12 13:13:54;;;;;;;11.82;7.40;;;28.10;59.90;;;;;;5093077;28;20028;-79
2023/10/12 13:16:23;;;;;;;15.60;7.35;;;28.30;59.60;;;;;;5092348;28;20387;-79
2023/10/12 13:18:50;;;;;;;10.65;7.05;;;28.70;59.10;;;;;;5062242;28;20151;-81
2023/10/12 13:21:17;;;;;;;13.00;6.78;;;28.60;57.90;;;;;;5090232;28;20176;-80
2023/10/12 13:23:45;;;;;;;12.70;7.60;;;28.40;59.50;;;;;;5087955;28;20036;-76
2023/10/12 13:26:17;;;;;;;11.52;7.85;;;28.50;58.60;;;;;;5091706;28;20115;-79
2023/10/12 13:28:45;;;;;;;16.65;7.78;;;28.60;58.50;;;;;;5086506;28;20047;-79
2023/10/12 13:31:12;;;;;;;11.07;7.90;;;29.20;58.90;;;;;;5088747;28;20048;-77
2023/10/12 13:33:43;;;;;;;10.77;7.90;;;29.30;58.70;;;;;;5091283;28;20043;-78
2023/10/12 13:36:11;;;;;;;13.10;7.47;;;29.30;57.80;;;;;;5087976;28;20051;-78
2023/10/12 13:38:39;;;;;;;11.75;7.45;;;29.30;57.20;;;;;;5076494;28;20117;-78
2023/10/12 13:41:10;;;;;;;14.18;7.95;;;29.20;57.20;;;;;;5089699;28;20040;-79
2023/10/12 13:43:40;;;;;;;16.20;9.60;;;29.70;57.20;;;;;;5085322;28;20047;-73
2023/10/12 13:46:07;;;;;;;15.57;10.82;;;29.90;56.60;;;;;;5086107;28;20043;-78
2023/10/12 13:48:38;;;;;;;17.33;8.80;;;29.80;55.60;;;;;;5082508;28;20115;-80
2023/10/12 13:51:19;;;;;;;12.38;8.20;;;30.20;55.00;;;;;;5081682;28;20032;-79
2023/10/12 13:53:51;;;;;;;11.27;7.55;;;31.80;54.30;;;;;;5077264;28;20040;-78
2023/10/12 13:56:23;;;;;;;13.45;7.90;;;35.00;51.00;;;;;;5085708;28;20039;-79
2023/10/12 13:59:09;;;;;;;10.25;7.55;;;36.70;48.30;;;;;;5066229;28;20467;-77
2023/10/12 14:01:37;;;;;;;13.23;7.57;;;36.80;45.70;;;;;;5074852;28;20388;-78
2023/10/12 14:04:28;;;;;;;11.30;7.82;;;36.70;45.10;;;;;;5066041;28;20040;-78
2023/10/12 14:06:55;;;;;;;13.48;8.48;;;37.00;44.90;;;;;;5086283;28;20069;-80
2023/10/12 14:09:27;;;;;;;13.95;7.93;;;36.40;44.30;;;;;;5069859;28;20073;-78
2023/10/12 14:11:55;;;;;;;14.20;7.35;;;35.80;44.20;;;;;;5085945;28;20117;-77
2023/10/12 14:14:28;;;;;;;10.88;8.15;;;35.80;44.20;;;;;;5083633;28;20037;-79
2023/10/12 14:16:56;;;;;;;11.77;7.22;;;36.00;44.60;;;;;;5088393;28;20064;-81
2023/10/12 14:19:24;;;;;;;13.02;8.32;;;36.70;44.00;;;;;;5082389;28;20040;-79
2023/10/12 14:21:57;;;;;;;12.32;7.75;;;37.30;43.80;;;;;;5074714;28;20063;-78
2023/10/12 14:24:24;;;;;;;11.52;7.15;;;36.70;42.70;;;;;;5086873;28;20040;-78
2023/10/12 14:26:58;;;;;;;14.70;7.70;;;36.90;43.30;;;;;;5068240;28;20074;-78
2023/10/12 14:29:26;;;;;;;11.15;7.47;;;37.20;42.80;;;;;;5090681;28;20035;-79
2023/10/12 14:31:55;;;;;;;13.70;8.13;;;37.60;43.00;;;;;;5070738;28;20028;-82
2023/10/12 14:34:25;;;;;;;8.82;6.65;;;37.60;43.10;;;;;;5089561;28;20052;-81
2023/10/12 14:36:52;;;;;;;11.88;7.90;;;36.70;42.80;;;;;;5087723;28;20032;-81
2023/10/12 14:39:22;;;;;;;12.13;7.80;;;36.40;43.40;;;;;;5090072;28;20085;-81
2023/10/12 14:41:50;;;;;;;11.05;7.07;;;36.00;43.40;;;;;;5085750;28;20550;-79
2023/10/12 14:44:19;;;;;;;14.13;7.28;;;36.10;43.60;;;;;;5086256;28;20040;-78
2023/10/12 14:46:49;;;;;;;13.73;7.35;;;35.80;43.70;;;;;;5080873;28;20670;-78
2023/10/12 14:49:19;;;;;;;12.90;7.75;;;36.10;43.50;;;;;;5070714;28;20157;-81
2023/10/12 14:51:47;;;;;;;33.83;30.13;;;36.10;43.10;;;;;;5087934;28;20044;-81
2023/10/12 14:54:15;;;;;;;19.63;17.52;;;35.60;43.80;;;;;;5071915;28;20032;-80
2023/10/12 14:56:43;;;;;;;86.53;77.43;;;35.70;44.10;;;;;;5090261;28;20106;-79
2023/10/12 14:59:11;;;;;;;19.95;15.02;;;35.60;43.90;;;;;;5086211;28;20040;-79
2023/10/12 15:01:38;;;;;;;9.30;7.35;;;35.40;43.70;;;;;;5086192;28;20036;-76
2023/10/12 15:04:09;;;;;;;11.48;6.95;;;34.80;43.40;;;;;;5088428;28;20048;-80